createdAt,value
2022-08-12T00:00:27.547Z,14.50
2022-08-12T00:06:08.608Z,19.30
2022-08-12T00:11:29.513Z,18.00
2022-08-12T00:16:56.656Z,20.30
2022-08-12T00:22:19.402Z,18.30
2022-08-12T00:27:43.443Z,22.50
2022-08-12T00:33:06.899Z,22.50
2022-08-12T00:38:27.641Z,19.60
2022-08-12T00:43:29.911Z,16.40
2022-08-12T00:48:32.307Z,21.40
2022-08-12T00:53:36.714Z,13.40
2022-08-12T00:58:46.329Z,21.40
2022-08-12T01:04:08.556Z,20.00
2022-08-12T01:09:34.793Z,19.40
2022-08-12T01:14:38.419Z,21.10
2022-08-12T01:19:40.850Z,21.40
2022-08-12T01:25:04.050Z,21.00
2022-08-12T01:30:09.348Z,26.20
2022-08-12T01:35:14.263Z,29.40
2022-08-12T01:40:36.149Z,24.40
2022-08-12T01:46:22.696Z,21.30
2022-08-12T01:52:19.946Z,22.80
2022-08-12T01:57:13.619Z,22.80
2022-08-12T02:03:02.109Z,26.60
2022-08-12T02:09:00.275Z,26.40
2022-08-12T02:14:28.583Z,23.60
2022-08-12T02:20:07.822Z,21.50
2022-08-12T02:25:12.333Z,23.40
2022-08-12T02:30:19.549Z,26.90
2022-08-12T02:35:24.652Z,28.40
2022-08-12T02:40:28.790Z,30.50
2022-08-12T02:45:45.609Z,25.20
2022-08-12T02:50:52.648Z,41.00
2022-08-12T02:55:54.986Z,32.10
2022-08-12T03:00:57.972Z,26.30
2022-08-12T03:06:03.533Z,27.00
2022-08-12T03:11:42.653Z,26.40
2022-08-12T03:17:14.150Z,27.30
2022-08-12T03:22:18.853Z,29.40
2022-08-12T03:27:20.812Z,26.80
2022-08-12T03:32:35.172Z,21.00
2022-08-12T03:38:12.609Z,28.00
2022-08-12T03:43:52.892Z,24.50
2022-08-12T03:49:19.644Z,25.30
2022-08-12T03:54:42.584Z,21.90
2022-08-12T04:00:03.451Z,24.10
2022-08-12T04:05:11.150Z,19.30
2022-08-12T04:10:14.467Z,17.10
2022-08-12T04:15:19.697Z,16.00
2022-08-12T04:20:22.947Z,18.30
2022-08-12T04:25:27.157Z,17.40
2022-08-12T04:30:33.587Z,21.10
2022-08-12T04:35:36.045Z,13.50
2022-08-12T04:40:38.706Z,12.60
2022-08-12T04:45:41.254Z,15.60
2022-08-12T04:50:45.529Z,16.10
2022-08-12T04:55:48.514Z,14.70
2022-08-12T05:01:04.516Z,17.80
2022-08-12T05:06:26.700Z,14.70
2022-08-12T05:11:29.602Z,20.00
2022-08-12T05:16:46.514Z,14.90
2022-08-12T05:21:48.740Z,18.20
2022-08-12T05:26:52.077Z,16.80
2022-08-12T05:31:57.019Z,17.40
2022-08-12T05:36:59.675Z,18.10
2022-08-12T05:42:01.745Z,17.50
2022-08-12T05:47:04.538Z,20.50
2022-08-12T05:52:07.092Z,29.00
2022-08-12T05:57:09.123Z,28.80
2022-08-12T06:02:13.710Z,20.00
2022-08-12T06:07:42.833Z,23.70
2022-08-12T06:12:37.964Z,19.40
2022-08-12T06:17:39.861Z,15.20
2022-08-12T06:22:45.447Z,19.00
2022-08-12T06:28:08.629Z,18.00
2022-08-12T06:33:24.826Z,16.50
2022-08-12T06:38:29.145Z,20.30
2022-08-12T06:44:04.679Z,19.60
2022-08-12T06:48:59.344Z,21.00
2022-08-12T06:54:01.913Z,23.70
2022-08-12T06:59:04.564Z,17.60
2022-08-12T07:04:33.671Z,19.40
2022-08-12T07:10:05.153Z,20.20
2022-08-12T07:14:51.706Z,15.70
2022-08-12T07:19:58.012Z,17.10
2022-08-12T07:25:21.056Z,20.70
2022-08-12T07:30:24.200Z,12.30
2022-08-12T07:35:27.679Z,18.50
2022-08-12T07:40:30.332Z,18.10
2022-08-12T07:45:32.448Z,15.40
2022-08-12T07:50:34.453Z,19.80
2022-08-12T07:55:36.782Z,13.40
2022-08-12T08:00:42.623Z,14.00
2022-08-12T08:05:46.574Z,15.50
2022-08-12T08:10:50.841Z,18.50
2022-08-12T08:16:03.403Z,12.50
2022-08-12T08:21:06.168Z,17.80
2022-08-12T08:26:10.529Z,12.70
2022-08-12T08:31:14.474Z,18.50
2022-08-12T08:36:23.881Z,15.20
2022-08-12T08:42:19.272Z,16.40
2022-08-12T08:47:13.087Z,14.70
2022-08-12T08:52:39.358Z,15.10
2022-08-12T08:57:43.741Z,15.50
2022-08-12T09:02:49.364Z,10.90
2022-08-12T09:08:13.076Z,10.10
2022-08-12T09:14:12.960Z,8.10
2022-08-12T09:19:01.839Z,4.80
2022-08-12T09:24:05.955Z,7.00
2022-08-12T09:30:11.804Z,7.00
2022-08-12T09:34:50.851Z,6.10
2022-08-12T09:40:05.579Z,9.70
2022-08-12T09:46:06.382Z,4.30
2022-08-12T09:51:02.110Z,16.50
2022-08-12T09:56:56.607Z,4.10
2022-08-12T10:01:35.204Z,4.40
2022-08-12T10:06:55.355Z,5.20
2022-08-12T10:12:25.495Z,4.90
2022-08-12T10:17:34.888Z,7.40
2022-08-12T10:23:12.727Z,3.80
2022-08-12T10:29:02.614Z,3.40
2022-08-12T10:34:26.255Z,7.50
2022-08-12T10:40:01.132Z,4.30
2022-08-12T10:45:05.136Z,6.50
2022-08-12T10:50:35.351Z,6.20
2022-08-12T10:55:56.264Z,4.40
2022-08-12T11:01:49.238Z,5.80
2022-08-12T11:07:02.495Z,6.70
2022-08-12T11:12:36.066Z,4.40
2022-08-12T11:17:44.088Z,4.40
2022-08-12T11:22:35.354Z,4.70
2022-08-12T11:27:51.341Z,5.20
2022-08-12T11:33:12.106Z,3.50
2022-08-12T11:38:14.410Z,7.90
2022-08-12T11:43:22.464Z,4.30
2022-08-12T11:48:27.037Z,5.30
2022-08-12T11:53:59.035Z,4.60
2022-08-12T12:04:28.967Z,4.50
2022-08-12T12:09:31.475Z,3.70
2022-08-12T12:14:54.765Z,7.10
2022-08-12T12:19:57.726Z,2.60
2022-08-12T12:25:19.779Z,4.20
2022-08-12T12:30:36.047Z,4.10
2022-08-12T12:36:06.504Z,5.80
2022-08-12T12:41:16.714Z,3.00
2022-08-12T12:46:19.143Z,6.60
2022-08-12T12:51:48.360Z,3.40
2022-08-12T12:56:47.957Z,2.80
2022-08-12T13:02:14.646Z,5.20
2022-08-12T13:08:01.113Z,5.20
2022-08-12T13:14:06.760Z,5.60
2022-08-12T13:18:49.618Z,6.60
2022-08-12T13:23:57.585Z,4.30
2022-08-12T13:29:00.557Z,5.70
2022-08-12T13:34:31.879Z,5.70
2022-08-12T13:39:32.892Z,2.90
2022-08-12T13:44:43.080Z,4.50
2022-08-12T13:49:59.826Z,2.90
2022-08-12T13:55:06.152Z,7.00
2022-08-12T14:00:11.100Z,5.90
2022-08-12T14:05:37.564Z,4.20
2022-08-12T14:10:50.876Z,3.30
2022-08-12T14:15:59.532Z,3.80
2022-08-12T14:21:10.135Z,4.80
2022-08-12T14:26:25.222Z,4.10
2022-08-12T14:31:32.075Z,3.20
2022-08-12T14:36:34.343Z,5.40
2022-08-12T14:41:48.680Z,7.20
2022-08-12T14:47:13.782Z,4.90
2022-08-12T14:53:23.997Z,4.30
2022-08-12T14:58:01.025Z,5.00
2022-08-12T15:03:03.861Z,3.80
2022-08-12T15:08:13.692Z,3.30
2022-08-12T15:13:20.423Z,4.80
2022-08-12T15:18:25.049Z,7.50
2022-08-12T15:23:33.240Z,7.00
2022-08-12T15:28:55.087Z,3.10
2022-08-12T15:33:57.179Z,3.80
2022-08-12T15:38:59.999Z,6.10
2022-08-12T15:44:37.152Z,5.60
2022-08-12T15:49:23.729Z,6.10
2022-08-12T15:54:33.400Z,7.40
2022-08-12T16:00:00.070Z,6.30
2022-08-12T16:05:18.805Z,6.80
2022-08-12T16:10:39.702Z,5.40
2022-08-12T16:16:01.470Z,6.00
2022-08-12T16:21:06.549Z,6.30
2022-08-12T16:26:15.218Z,4.80
2022-08-12T16:31:24.019Z,3.50
2022-08-12T16:36:26.576Z,5.70
2022-08-12T16:41:38.139Z,4.60
2022-08-12T16:46:57.959Z,8.20
2022-08-12T16:52:00.753Z,4.50
2022-08-12T16:57:05.608Z,5.40
2022-08-12T17:02:18.019Z,8.70
2022-08-12T17:07:43.570Z,8.70
2022-08-12T17:12:46.740Z,6.30
2022-08-12T17:17:50.512Z,4.50
2022-08-12T17:23:15.101Z,8.00
2022-08-12T17:28:21.366Z,9.00
2022-08-12T17:33:25.123Z,10.50
2022-08-12T17:38:28.877Z,9.50
2022-08-12T17:43:54.709Z,9.10
2022-08-12T17:48:57.915Z,9.10
2022-08-12T17:54:10.315Z,7.70
2022-08-12T17:59:47.193Z,8.20
2022-08-12T18:05:05.237Z,12.00
2022-08-12T18:10:13.448Z,12.00
2022-08-12T18:15:26.162Z,10.10
2022-08-12T18:20:32.858Z,12.40
2022-08-12T18:26:16.320Z,9.40
2022-08-12T18:31:23.773Z,7.10
2022-08-12T18:36:27.316Z,9.90
2022-08-12T18:41:33.657Z,7.50
2022-08-12T18:47:14.701Z,10.60
2022-08-12T18:52:32.161Z,11.10
2022-08-12T18:57:46.062Z,9.80
2022-08-12T19:03:38.585Z,11.40
2022-08-12T19:08:55.692Z,11.50
2022-08-12T19:14:23.926Z,12.30
2022-08-12T19:19:49.719Z,11.50
2022-08-12T19:25:18.387Z,15.50
2022-08-12T19:30:48.119Z,13.20
2022-08-12T19:36:24.242Z,11.60
2022-08-12T19:41:42.474Z,13.80
2022-08-12T19:46:51.969Z,18.60
2022-08-12T19:51:55.623Z,16.60
2022-08-12T19:56:58.625Z,28.00
2022-08-12T20:02:05.116Z,17.90
2022-08-12T20:07:23.695Z,19.70
2022-08-12T20:13:17.620Z,29.70
2022-08-12T20:18:44.249Z,22.10
2022-08-12T20:23:59.899Z,20.90
2022-08-12T20:29:05.157Z,20.30
2022-08-12T20:34:07.778Z,26.30
2022-08-12T20:39:17.477Z,23.80
2022-08-12T20:44:36.117Z,24.40
2022-08-12T20:49:43.918Z,22.60
2022-08-12T20:54:52.713Z,24.30
2022-08-12T20:59:54.829Z,24.80
2022-08-12T21:05:20.341Z,28.60
2022-08-12T21:10:26.572Z,24.90
2022-08-12T21:15:30.599Z,23.20
2022-08-12T21:20:53.208Z,21.20
2022-08-12T21:26:01.258Z,22.20
2022-08-12T21:32:34.658Z,22.20
2022-08-12T21:36:34.253Z,22.30
2022-08-12T21:41:38.139Z,23.40
2022-08-12T21:46:53.568Z,20.90
2022-08-12T21:51:56.621Z,20.00
2022-08-12T21:56:59.330Z,22.90
2022-08-12T22:02:01.217Z,20.70
2022-08-12T22:07:07.148Z,20.10
2022-08-12T22:12:29.732Z,23.90
2022-08-12T22:17:50.527Z,24.50
2022-08-12T22:22:59.610Z,25.50
2022-08-12T22:28:24.531Z,26.70
2022-08-12T22:33:26.791Z,24.70
2022-08-12T22:38:29.926Z,23.90
2022-08-12T22:44:00.522Z,26.20
2022-08-12T22:49:06.752Z,27.80
